createdAt,value
2022-12-03T00:01:12.591Z,2.00
2022-12-03T00:03:15.253Z,2.00
2022-12-03T00:05:18.003Z,2.00
2022-12-03T00:07:20.677Z,2.00
2022-12-03T00:09:23.281Z,2.00
2022-12-03T00:11:25.857Z,2.00
2022-12-03T00:13:28.437Z,2.00
2022-12-03T00:15:31.057Z,2.00
2022-12-03T00:17:33.717Z,2.00
2022-12-03T00:19:36.310Z,2.00
2022-12-03T00:21:38.863Z,2.00
2022-12-03T00:23:42.463Z,2.00
2022-12-03T00:25:45.125Z,2.00
2022-12-03T00:27:47.781Z,2.00
2022-12-03T00:29:50.279Z,1.90
2022-12-03T00:31:52.965Z,2.00
2022-12-03T00:33:55.660Z,2.00
2022-12-03T00:35:58.142Z,1.90
2022-12-03T00:38:00.616Z,2.00
2022-12-03T00:40:03.879Z,2.00
2022-12-03T00:42:06.396Z,2.00
2022-12-03T00:44:08.898Z,2.00
2022-12-03T00:46:11.434Z,2.00
2022-12-03T00:48:14.082Z,2.00
2022-12-03T00:50:16.785Z,2.00
2022-12-03T00:52:19.395Z,2.00
2022-12-03T00:54:24.545Z,2.00
2022-12-03T00:56:26.185Z,2.00
2022-12-03T00:58:28.689Z,2.00
2022-12-03T01:00:31.190Z,2.00
2022-12-03T01:04:51.826Z,2.00
2022-12-03T01:06:54.646Z,2.00
2022-12-03T01:08:57.133Z,2.00
2022-12-03T01:10:59.760Z,2.00
2022-12-03T01:13:02.260Z,2.00
2022-12-03T01:17:22.267Z,2.00
2022-12-03T01:19:25.029Z,1.90
2022-12-03T01:21:27.643Z,2.00
2022-12-03T01:23:30.229Z,2.00
2022-12-03T01:25:32.720Z,1.90
2022-12-03T01:27:35.225Z,2.00
2022-12-03T01:29:37.712Z,1.90
2022-12-03T01:31:57.909Z,1.90
2022-12-03T01:34:00.372Z,1.90
2022-12-03T01:36:02.893Z,1.90
2022-12-03T01:38:05.352Z,1.90
2022-12-03T01:40:09.099Z,1.90
2022-12-03T01:42:14.176Z,1.90
2022-12-03T01:44:18.212Z,1.90
2022-12-03T01:46:22.151Z,1.90
2022-12-03T01:48:24.729Z,1.80
2022-12-03T01:50:29.220Z,1.90
2022-12-03T01:52:32.843Z,1.90
2022-12-03T01:54:37.137Z,1.90
2022-12-03T01:56:39.632Z,1.90
2022-12-03T01:58:42.493Z,1.90
2022-12-03T02:00:45.103Z,1.90
2022-12-03T02:02:48.468Z,1.90
2022-12-03T02:04:52.719Z,1.80
2022-12-03T02:06:55.381Z,1.80
2022-12-03T02:08:59.620Z,1.80
2022-12-03T02:11:03.097Z,1.80
2022-12-03T02:13:07.216Z,1.90
2022-12-03T02:15:10.589Z,1.80
2022-12-03T02:17:13.400Z,1.80
2022-12-03T02:19:18.469Z,1.80
2022-12-03T02:21:22.789Z,1.80
2022-12-03T02:23:27.100Z,1.80
2022-12-03T02:25:31.424Z,1.80
2022-12-03T02:27:33.942Z,1.80
2022-12-03T02:29:36.428Z,1.80
2022-12-03T02:31:38.962Z,1.80
2022-12-03T02:33:41.513Z,1.80
2022-12-03T02:35:44.375Z,1.80
2022-12-03T02:37:47.549Z,1.70
2022-12-03T02:39:51.360Z,1.70
2022-12-03T02:42:11.897Z,1.70
2022-12-03T02:44:14.472Z,1.70
2022-12-03T02:46:16.970Z,1.80
2022-12-03T02:48:21.312Z,1.80
2022-12-03T02:50:25.444Z,1.80
2022-12-03T02:52:28.084Z,1.70
2022-12-03T02:54:30.738Z,1.70
2022-12-03T02:56:33.357Z,1.70
2022-12-03T02:58:35.960Z,1.70
2022-12-03T03:00:38.717Z,1.70
2022-12-03T03:02:41.795Z,1.70
2022-12-03T03:04:44.533Z,1.70
2022-12-03T03:06:47.061Z,1.60
2022-12-03T03:08:49.549Z,1.70
2022-12-03T03:10:52.130Z,1.60
2022-12-03T03:12:55.355Z,1.70
2022-12-03T03:14:58.040Z,1.70
2022-12-03T03:17:00.508Z,1.70
2022-12-03T03:19:03.208Z,1.70
2022-12-03T03:21:06.106Z,1.60
2022-12-03T03:23:13.509Z,1.60
2022-12-03T03:25:17.536Z,1.60
2022-12-03T03:27:20.101Z,1.70
2022-12-03T03:29:22.580Z,1.60
2022-12-03T03:31:25.095Z,1.60
2022-12-03T03:33:27.857Z,1.60
2022-12-03T03:35:30.497Z,1.60
2022-12-03T03:37:32.990Z,1.60
2022-12-03T03:39:35.668Z,1.60
2022-12-03T03:41:38.870Z,1.60
2022-12-03T03:43:42.021Z,1.60
2022-12-03T03:45:44.734Z,1.60
2022-12-03T03:47:47.500Z,1.60
2022-12-03T03:49:50.344Z,1.60
2022-12-03T03:51:52.813Z,1.60
2022-12-03T03:53:55.321Z,1.50
2022-12-03T03:55:57.802Z,1.50
2022-12-03T03:58:00.528Z,1.50
2022-12-03T04:00:04.724Z,1.50
2022-12-03T04:02:14.218Z,1.50
2022-12-03T04:04:18.470Z,1.60
2022-12-03T04:06:21.037Z,1.50
2022-12-03T04:08:23.489Z,1.60
2022-12-03T04:10:44.082Z,1.50
2022-12-03T04:12:55.729Z,1.50
2022-12-03T04:14:58.442Z,1.50
2022-12-03T04:17:01.103Z,1.50
2022-12-03T04:19:03.590Z,1.50
2022-12-03T04:21:23.830Z,1.50
2022-12-03T04:23:30.792Z,1.50
2022-12-03T04:25:48.340Z,1.50
2022-12-03T04:28:08.817Z,1.50
2022-12-03T04:30:11.897Z,1.50
2022-12-03T04:32:32.249Z,1.50
2022-12-03T04:34:53.055Z,1.50
2022-12-03T04:36:56.045Z,1.50
2022-12-03T04:38:58.614Z,1.50
2022-12-03T04:41:01.245Z,1.40
2022-12-03T04:43:03.824Z,1.50
2022-12-03T04:45:07.393Z,1.40
2022-12-03T04:47:10.789Z,1.40
2022-12-03T04:49:13.273Z,1.40
2022-12-03T04:51:15.785Z,1.40
2022-12-03T04:53:18.514Z,1.40
2022-12-03T04:55:20.957Z,1.40
2022-12-03T04:57:23.462Z,1.40
2022-12-03T04:59:26.026Z,1.50
2022-12-03T05:01:28.705Z,1.40
2022-12-03T05:03:31.338Z,1.40
2022-12-03T05:05:33.858Z,1.40
2022-12-03T05:07:36.346Z,1.40
2022-12-03T05:09:38.894Z,1.40
2022-12-03T05:11:41.713Z,1.40
2022-12-03T05:13:44.285Z,1.30
2022-12-03T05:15:46.750Z,1.40
2022-12-03T05:17:49.208Z,1.40
2022-12-03T05:20:09.517Z,1.40
2022-12-03T05:22:12.132Z,1.40
2022-12-03T05:24:14.631Z,1.40
2022-12-03T05:26:17.112Z,1.30
2022-12-03T05:28:21.561Z,1.40
2022-12-03T05:30:24.156Z,1.30
2022-12-03T05:32:26.770Z,1.30
2022-12-03T05:34:29.458Z,1.30
2022-12-03T05:36:31.961Z,1.30
2022-12-03T05:38:34.421Z,1.50
2022-12-03T05:40:36.919Z,1.30
2022-12-03T05:42:54.475Z,1.40
2022-12-03T05:44:57.250Z,1.40
2022-12-03T05:46:59.739Z,1.30
2022-12-03T05:49:02.232Z,1.20
2022-12-03T05:51:04.808Z,1.20
2022-12-03T05:53:07.267Z,1.20
2022-12-03T05:55:10.038Z,1.20
2022-12-03T05:57:12.533Z,1.10
2022-12-03T05:59:15.029Z,1.10
2022-12-03T06:01:17.527Z,1.10
2022-12-03T06:03:20.148Z,1.10
2022-12-03T06:05:23.229Z,1.10
2022-12-03T06:07:25.772Z,1.10
2022-12-03T06:09:28.307Z,1.00
2022-12-03T06:11:32.879Z,1.00
2022-12-03T06:13:35.370Z,1.00
2022-12-03T06:15:43.546Z,1.00
2022-12-03T06:17:42.262Z,1.00
2022-12-03T06:19:44.761Z,1.00
2022-12-03T06:21:47.227Z,1.00
2022-12-03T06:23:50.631Z,1.00
2022-12-03T06:25:53.172Z,1.00
2022-12-03T06:27:55.640Z,1.00
2022-12-03T06:29:58.106Z,1.00
2022-12-03T06:32:00.607Z,1.00
2022-12-03T06:34:03.090Z,1.00
2022-12-03T06:36:06.700Z,1.00
2022-12-03T06:38:09.253Z,1.00
2022-12-03T06:40:12.748Z,1.00
2022-12-03T06:42:15.250Z,1.00
2022-12-03T06:44:17.747Z,1.00
2022-12-03T06:46:20.439Z,1.00
2022-12-03T06:48:23.000Z,1.00
2022-12-03T06:50:25.512Z,1.00
2022-12-03T06:52:27.996Z,1.00
2022-12-03T06:54:30.669Z,1.00
2022-12-03T06:56:37.922Z,1.00
2022-12-03T06:58:38.189Z,0.90
2022-12-03T07:00:40.657Z,1.00
2022-12-03T07:02:44.031Z,1.00
2022-12-03T07:04:46.777Z,1.10
2022-12-03T07:06:49.368Z,1.10
2022-12-03T07:08:52.154Z,1.00
2022-12-03T07:10:54.938Z,1.00
2022-12-03T07:12:57.401Z,1.00
2022-12-03T07:14:59.853Z,1.00
2022-12-03T07:17:03.306Z,0.90
2022-12-03T07:19:06.085Z,1.00
2022-12-03T07:21:08.576Z,1.00
2022-12-03T07:23:11.135Z,1.00
2022-12-03T07:25:16.847Z,1.00
2022-12-03T07:27:18.035Z,1.00
2022-12-03T07:29:20.748Z,1.00
2022-12-03T07:31:23.318Z,1.00
2022-12-03T07:33:25.849Z,1.00
2022-12-03T07:35:28.340Z,1.00
2022-12-03T07:37:30.837Z,1.00
2022-12-03T07:39:33.329Z,1.00
2022-12-03T07:41:37.340Z,1.00
2022-12-03T07:43:39.807Z,1.00
2022-12-03T07:45:42.316Z,1.00
2022-12-03T07:47:44.909Z,0.90
2022-12-03T07:49:47.400Z,1.00
2022-12-03T07:51:53.843Z,1.00
2022-12-03T07:53:56.335Z,1.00
2022-12-03T07:55:58.842Z,1.10
2022-12-03T07:58:01.329Z,1.00
2022-12-03T08:00:04.733Z,1.10
2022-12-03T08:02:08.575Z,1.10
2022-12-03T08:04:12.297Z,1.10
2022-12-03T08:06:14.753Z,1.00
2022-12-03T08:08:17.351Z,1.10
2022-12-03T08:10:19.842Z,1.00
2022-12-03T08:12:24.147Z,1.10
2022-12-03T08:14:27.275Z,1.00
2022-12-03T08:16:30.344Z,1.10
2022-12-03T08:18:33.038Z,1.10
2022-12-03T08:20:37.318Z,1.10
2022-12-03T08:22:40.724Z,1.20
2022-12-03T08:24:43.731Z,1.20
2022-12-03T08:26:47.134Z,1.10
2022-12-03T08:28:49.740Z,1.20
2022-12-03T08:30:58.457Z,1.10
2022-12-03T08:33:01.065Z,1.20
2022-12-03T08:35:07.697Z,1.20
2022-12-03T08:37:12.022Z,1.20
2022-12-03T08:39:21.076Z,1.20
2022-12-03T08:41:43.345Z,1.20
2022-12-03T08:43:45.809Z,1.20
2022-12-03T08:45:49.595Z,1.20
2022-12-03T08:47:52.138Z,1.20
2022-12-03T08:49:55.517Z,1.30
2022-12-03T08:51:59.820Z,1.20
2022-12-03T08:54:05.193Z,1.20
2022-12-03T08:56:13.929Z,1.30
2022-12-03T08:58:18.708Z,1.30
2022-12-03T09:00:22.937Z,1.30
2022-12-03T09:02:28.128Z,1.30
2022-12-03T09:04:31.799Z,1.30
2022-12-03T09:06:34.442Z,1.30
2022-12-03T09:08:36.925Z,1.40
2022-12-03T09:10:40.568Z,1.40
2022-12-03T09:12:43.031Z,1.40
2022-12-03T09:14:45.566Z,1.40
2022-12-03T09:16:48.292Z,1.30
2022-12-03T09:18:50.805Z,1.30
2022-12-03T09:20:53.304Z,1.40
2022-12-03T09:22:55.819Z,1.30
2022-12-03T09:24:58.300Z,1.40
2022-12-03T09:27:00.781Z,1.50
2022-12-03T09:29:07.551Z,1.40
2022-12-03T09:31:07.674Z,1.30
2022-12-03T09:33:10.439Z,1.40
2022-12-03T09:35:13.048Z,1.40
2022-12-03T09:37:15.769Z,1.30
2022-12-03T09:39:18.267Z,1.30
2022-12-03T09:41:21.072Z,1.30
2022-12-03T09:43:24.620Z,1.30
2022-12-03T09:45:27.862Z,1.40
2022-12-03T09:47:30.611Z,1.40
2022-12-03T09:49:34.994Z,1.40
2022-12-03T09:51:37.788Z,1.40
2022-12-03T09:53:41.448Z,1.40
2022-12-03T09:55:44.721Z,1.40
2022-12-03T09:57:47.213Z,1.40
2022-12-03T09:59:49.836Z,1.40
2022-12-03T10:01:52.732Z,1.50
2022-12-03T10:03:55.340Z,1.40
2022-12-03T10:05:59.083Z,1.50
2022-12-03T10:08:04.496Z,1.50
2022-12-03T10:10:10.132Z,1.50
2022-12-03T10:12:13.906Z,1.50
2022-12-03T10:14:17.216Z,1.50
2022-12-03T10:16:20.218Z,1.50
2022-12-03T10:18:23.991Z,1.50
2022-12-03T10:20:26.467Z,1.60
2022-12-03T10:22:31.721Z,1.60
2022-12-03T10:24:35.406Z,1.60
2022-12-03T10:26:39.400Z,1.60
2022-12-03T10:28:43.088Z,1.60
2022-12-03T10:30:50.836Z,1.60
2022-12-03T10:32:53.640Z,1.60
2022-12-03T10:35:07.828Z,1.60
2022-12-03T10:37:11.519Z,1.60
2022-12-03T10:39:14.910Z,1.60
2022-12-03T10:41:21.789Z,1.70
2022-12-03T10:43:24.988Z,1.60
2022-12-03T10:45:27.460Z,1.70
2022-12-03T10:47:30.052Z,1.70
2022-12-03T10:49:32.632Z,1.70
2022-12-03T10:51:35.123Z,1.70
2022-12-03T10:53:38.788Z,1.70
2022-12-03T10:55:42.423Z,1.70
2022-12-03T10:57:46.164Z,1.70
2022-12-03T10:59:49.271Z,1.70
2022-12-03T11:01:52.317Z,1.70
2022-12-03T11:03:56.438Z,1.80
2022-12-03T11:06:00.238Z,1.90
2022-12-03T11:08:03.820Z,1.80
2022-12-03T11:10:08.765Z,1.80
2022-12-03T11:12:17.027Z,1.70
2022-12-03T11:14:37.215Z,1.70
2022-12-03T11:17:13.752Z,1.80
2022-12-03T11:19:17.267Z,1.70
2022-12-03T11:21:20.975Z,1.80
2022-12-03T11:23:42.601Z,1.80
2022-12-03T11:25:50.385Z,1.80
2022-12-03T11:28:12.106Z,1.70
2022-12-03T11:30:16.387Z,1.80
2022-12-03T11:32:36.868Z,1.80
2022-12-03T11:34:40.613Z,1.80
2022-12-03T11:37:02.303Z,1.80
2022-12-03T11:39:04.736Z,1.80
2022-12-03T11:41:07.805Z,1.80
2022-12-03T11:43:10.765Z,1.80
2022-12-03T11:45:44.353Z,1.70
2022-12-03T11:47:51.855Z,1.80
2022-12-03T11:49:55.010Z,1.80
2022-12-03T11:51:57.960Z,1.80
2022-12-03T11:54:00.438Z,1.80
2022-12-03T11:56:07.892Z,1.80
2022-12-03T11:58:15.533Z,1.90
2022-12-03T12:00:22.330Z,1.90
2022-12-03T12:02:25.529Z,1.80
2022-12-03T12:04:30.497Z,1.80
2022-12-03T12:06:42.262Z,1.80
2022-12-03T12:08:55.900Z,1.90
2022-12-03T12:10:58.597Z,1.90
2022-12-03T12:13:01.129Z,1.80
2022-12-03T12:15:11.891Z,1.80
2022-12-03T12:17:33.524Z,1.90
2022-12-03T12:19:36.976Z,1.80
2022-12-03T12:21:40.737Z,1.80
2022-12-03T12:23:44.082Z,1.90
2022-12-03T12:28:03.821Z,1.90
2022-12-03T12:30:08.294Z,1.90
2022-12-03T12:32:12.772Z,1.90
2022-12-03T12:34:15.457Z,1.80
2022-12-03T12:36:17.932Z,1.90
2022-12-03T12:38:20.832Z,1.90
2022-12-03T12:40:24.081Z,2.00
2022-12-03T12:42:29.055Z,1.90
2022-12-03T12:44:31.548Z,1.80
2022-12-03T12:46:49.426Z,1.90
2022-12-03T12:48:38.732Z,1.90
2022-12-03T12:50:41.554Z,1.90
2022-12-03T12:52:48.550Z,1.90
2022-12-03T12:54:51.066Z,1.90
2022-12-03T12:56:53.571Z,1.90
2022-12-03T12:58:56.881Z,1.90
2022-12-03T13:01:00.126Z,1.90
2022-12-03T13:03:03.660Z,1.90
2022-12-03T13:05:07.956Z,1.90
2022-12-03T13:07:10.476Z,1.90
2022-12-03T13:09:14.610Z,1.80
2022-12-03T13:11:20.516Z,1.80
2022-12-03T13:13:28.665Z,1.90
2022-12-03T13:15:34.588Z,1.90
2022-12-03T13:17:37.119Z,1.80
2022-12-03T13:20:01.919Z,1.80
2022-12-03T13:21:44.748Z,1.90
2022-12-03T13:23:47.231Z,1.80
2022-12-03T13:26:01.762Z,1.80
2022-12-03T13:27:55.653Z,1.90
2022-12-03T13:29:59.731Z,1.90
2022-12-03T13:32:04.114Z,1.90
2022-12-03T13:34:12.996Z,1.80
2022-12-03T13:36:16.268Z,1.90
2022-12-03T13:38:19.103Z,1.90
2022-12-03T13:40:23.460Z,1.90
2022-12-03T13:42:41.196Z,1.90
2022-12-03T13:44:45.439Z,1.90
2022-12-03T13:46:47.927Z,2.20
2022-12-03T13:48:50.535Z,1.80
2022-12-03T13:50:53.120Z,1.80
2022-12-03T13:52:55.916Z,1.80
2022-12-03T13:54:58.510Z,1.90
2022-12-03T13:57:02.085Z,1.80
2022-12-03T13:59:04.740Z,1.80
2022-12-03T14:01:07.298Z,1.80
2022-12-03T14:03:09.787Z,1.80
2022-12-03T14:05:12.775Z,1.70
2022-12-03T14:07:16.942Z,1.80
2022-12-03T14:09:19.569Z,1.80
2022-12-03T14:11:40.197Z,1.80
2022-12-03T14:13:42.720Z,1.80
2022-12-03T14:15:45.190Z,1.80
2022-12-03T14:17:47.672Z,1.80
2022-12-03T14:19:50.156Z,1.80
2022-12-03T14:24:09.952Z,1.70
2022-12-03T14:26:12.448Z,1.70
2022-12-03T14:28:15.016Z,1.70
2022-12-03T14:30:17.812Z,1.70
2022-12-03T14:32:20.312Z,1.70
2022-12-03T14:34:23.375Z,1.70
2022-12-03T14:36:26.367Z,1.80
2022-12-03T14:38:28.836Z,1.80
2022-12-03T14:40:31.352Z,1.70
2022-12-03T14:42:33.924Z,1.80
2022-12-03T14:44:36.414Z,1.70
2022-12-03T14:46:38.931Z,1.70
2022-12-03T14:48:41.427Z,1.70
2022-12-03T14:50:43.921Z,1.60
2022-12-03T14:52:46.427Z,1.60
2022-12-03T14:54:49.073Z,1.70
2022-12-03T14:56:51.833Z,1.60
2022-12-03T14:58:54.289Z,1.70
2022-12-03T15:00:57.121Z,1.70
2022-12-03T15:02:59.701Z,1.60
2022-12-03T15:05:02.223Z,1.70
2022-12-03T15:07:05.025Z,1.70
2022-12-03T15:09:07.525Z,1.60
2022-12-03T15:11:09.996Z,1.70
2022-12-03T15:13:12.749Z,1.70
2022-12-03T15:15:15.284Z,1.60
2022-12-03T15:17:23.272Z,1.70
2022-12-03T15:19:22.078Z,1.60
2022-12-03T15:21:24.557Z,1.60
2022-12-03T15:23:27.164Z,1.60
2022-12-03T15:25:29.624Z,1.50
2022-12-03T15:27:32.108Z,1.50
2022-12-03T15:29:34.594Z,1.60
2022-12-03T15:31:37.249Z,1.60
2022-12-03T15:33:39.797Z,1.50
2022-12-03T15:35:42.839Z,1.50
2022-12-03T15:37:45.425Z,1.50
2022-12-03T15:39:52.446Z,1.50
2022-12-03T15:41:52.259Z,1.50
2022-12-03T15:43:56.369Z,1.50
2022-12-03T15:45:58.888Z,1.50
2022-12-03T15:48:01.591Z,1.50
2022-12-03T15:50:04.820Z,1.50
2022-12-03T15:52:07.628Z,1.50
2022-12-03T15:54:11.625Z,1.50
2022-12-03T15:56:14.212Z,1.50
2022-12-03T15:58:16.689Z,1.60
2022-12-03T16:00:20.028Z,1.60
2022-12-03T16:02:22.715Z,1.60
2022-12-03T16:04:25.326Z,1.50
2022-12-03T16:06:27.791Z,1.50
2022-12-03T16:08:30.401Z,1.50
2022-12-03T16:10:32.876Z,1.50
2022-12-03T16:12:35.366Z,1.50
2022-12-03T16:14:37.893Z,1.50
2022-12-03T16:16:40.661Z,1.50
2022-12-03T16:18:43.151Z,1.60
2022-12-03T16:20:45.654Z,1.50
2022-12-03T16:22:48.185Z,1.50
2022-12-03T16:24:50.689Z,1.50
2022-12-03T16:26:53.177Z,1.50
2022-12-03T16:28:55.643Z,1.50
2022-12-03T16:31:00.223Z,1.50
2022-12-03T16:33:03.823Z,1.50
2022-12-03T16:35:06.841Z,1.50
2022-12-03T16:37:10.869Z,1.50
2022-12-03T16:39:13.664Z,1.50
2022-12-03T16:41:16.163Z,1.50
2022-12-03T16:43:18.966Z,1.40
2022-12-03T16:45:35.399Z,1.50
2022-12-03T16:47:37.884Z,1.40
2022-12-03T16:49:40.400Z,1.40
2022-12-03T16:51:42.888Z,1.50
2022-12-03T16:53:45.597Z,1.40
2022-12-03T16:55:50.816Z,1.40
2022-12-03T16:57:54.661Z,1.40
2022-12-03T16:59:57.188Z,1.40
2022-12-03T17:01:59.825Z,1.40
2022-12-03T17:04:02.370Z,1.40
2022-12-03T17:08:23.223Z,1.40
2022-12-03T17:10:25.750Z,1.40
2022-12-03T17:12:42.184Z,1.30
2022-12-03T17:14:33.655Z,1.30
2022-12-03T17:16:36.783Z,1.30
2022-12-03T17:18:39.450Z,1.30
2022-12-03T17:20:41.920Z,1.30
2022-12-03T17:22:44.511Z,1.40
2022-12-03T17:24:46.975Z,1.40
2022-12-03T17:26:49.476Z,1.30
2022-12-03T17:28:52.076Z,1.30
2022-12-03T17:30:54.740Z,1.30
2022-12-03T17:32:57.219Z,1.40
2022-12-03T17:34:59.846Z,1.30
2022-12-03T17:37:02.338Z,1.30
2022-12-03T17:39:05.867Z,1.30
2022-12-03T17:41:08.387Z,1.30
2022-12-03T17:43:10.854Z,1.30
2022-12-03T17:45:13.447Z,1.30
2022-12-03T17:47:16.007Z,1.30
2022-12-03T17:49:18.494Z,1.30
2022-12-03T17:51:20.960Z,1.30
2022-12-03T17:53:23.440Z,1.30
2022-12-03T17:55:35.895Z,1.20
2022-12-03T17:57:30.208Z,1.20
2022-12-03T17:59:32.723Z,1.20
2022-12-03T18:01:35.361Z,1.20
2022-12-03T18:03:37.953Z,1.30
2022-12-03T18:05:41.080Z,1.20
2022-12-03T18:07:43.641Z,1.20
2022-12-03T18:09:46.770Z,1.10
2022-12-03T18:11:50.124Z,1.20
2022-12-03T18:13:52.798Z,1.10
2022-12-03T18:15:55.694Z,1.10
2022-12-03T18:17:58.423Z,1.10
2022-12-03T18:20:01.148Z,1.10
2022-12-03T18:22:03.744Z,1.10
2022-12-03T18:24:06.901Z,1.10
2022-12-03T18:26:09.515Z,1.10
2022-12-03T18:28:12.179Z,1.10
2022-12-03T18:30:15.124Z,1.00
2022-12-03T18:32:28.274Z,1.10
2022-12-03T18:34:21.932Z,1.10
2022-12-03T18:36:24.997Z,1.10
2022-12-03T18:38:29.012Z,1.10
2022-12-03T18:40:31.551Z,1.00
2022-12-03T18:42:34.021Z,1.00
2022-12-03T18:44:36.516Z,1.00
2022-12-03T18:46:53.565Z,1.10
2022-12-03T18:48:43.621Z,1.00
2022-12-03T18:50:46.502Z,1.00
2022-12-03T18:52:49.002Z,1.00
2022-12-03T18:54:51.476Z,1.00
2022-12-03T18:56:54.064Z,1.00
2022-12-03T18:58:56.668Z,1.00
2022-12-03T19:00:59.301Z,1.00
2022-12-03T19:03:03.464Z,1.10
2022-12-03T19:05:07.240Z,1.00
2022-12-03T19:07:09.972Z,1.00
2022-12-03T19:09:12.571Z,0.90
2022-12-03T19:11:15.418Z,1.00
2022-12-03T19:13:18.092Z,1.00
2022-12-03T19:15:20.679Z,1.00
2022-12-03T19:17:23.138Z,0.90
2022-12-03T19:19:26.854Z,0.90
2022-12-03T19:21:33.495Z,1.00
2022-12-03T19:23:33.634Z,0.90
2022-12-03T19:25:36.196Z,0.90
2022-12-03T19:27:38.675Z,1.00
2022-12-03T19:29:41.193Z,1.00
2022-12-03T19:31:43.756Z,1.00
2022-12-03T19:33:46.525Z,1.00
2022-12-03T19:35:49.155Z,1.00
2022-12-03T19:37:51.661Z,1.00
2022-12-03T19:39:54.653Z,1.00
2022-12-03T19:41:57.509Z,1.10
2022-12-03T19:44:00.051Z,1.10
2022-12-03T19:46:03.352Z,1.10
2022-12-03T19:48:06.106Z,1.10
2022-12-03T19:50:09.791Z,1.00
2022-12-03T19:52:12.296Z,1.00
2022-12-03T19:54:15.004Z,1.00
2022-12-03T19:56:18.413Z,1.00
2022-12-03T19:58:20.928Z,1.10
2022-12-03T20:00:23.488Z,1.00
2022-12-03T20:02:26.081Z,1.10
2022-12-03T20:04:28.800Z,1.00
2022-12-03T20:06:33.082Z,1.00
2022-12-03T20:08:36.662Z,1.00
2022-12-03T20:10:39.205Z,1.00
2022-12-03T20:12:41.694Z,1.00
2022-12-03T20:14:44.616Z,1.00
2022-12-03T20:16:47.523Z,1.00
2022-12-03T20:18:50.212Z,1.00
2022-12-03T20:20:54.782Z,1.00
2022-12-03T20:22:57.359Z,1.00
2022-12-03T20:24:59.862Z,1.00
2022-12-03T20:27:02.381Z,1.10
2022-12-03T20:29:05.119Z,1.10
2022-12-03T20:31:10.174Z,1.10
2022-12-03T20:33:13.045Z,1.10
2022-12-03T20:35:15.537Z,1.00
2022-12-03T20:37:18.458Z,1.00
2022-12-03T20:39:21.014Z,1.10
2022-12-03T20:43:42.930Z,1.10
2022-12-03T20:45:46.184Z,1.00
2022-12-03T20:47:49.128Z,1.00
2022-12-03T20:49:52.042Z,1.10
2022-12-03T20:51:54.725Z,1.10
2022-12-03T20:54:06.934Z,1.10
2022-12-03T20:56:10.291Z,1.10
2022-12-03T20:58:12.816Z,1.00
2022-12-03T21:00:15.932Z,1.00
2022-12-03T21:02:18.490Z,1.00
2022-12-03T21:04:21.091Z,1.00
2022-12-03T21:06:24.436Z,1.00
2022-12-03T21:08:40.670Z,1.00
2022-12-03T21:10:39.153Z,1.00
2022-12-03T21:12:41.665Z,1.10
2022-12-03T21:14:48.971Z,1.10
2022-12-03T21:17:07.946Z,1.10
2022-12-03T21:18:59.802Z,1.10
2022-12-03T21:21:04.667Z,1.10
2022-12-03T21:23:08.351Z,1.10
2022-12-03T21:25:11.913Z,1.10
2022-12-03T21:27:21.339Z,1.00
2022-12-03T21:29:21.609Z,1.10
2022-12-03T21:31:25.611Z,1.10
2022-12-03T21:33:29.442Z,1.10
2022-12-03T21:35:32.118Z,1.00
2022-12-03T21:37:35.507Z,1.00
2022-12-03T21:39:38.176Z,1.00
2022-12-03T21:41:41.397Z,1.10
2022-12-03T21:43:46.354Z,1.00
2022-12-03T21:45:49.310Z,1.00
2022-12-03T21:47:52.145Z,1.00
2022-12-03T21:49:55.845Z,1.00
2022-12-03T21:51:58.465Z,1.00
2022-12-03T21:54:00.940Z,1.00
2022-12-03T21:56:04.828Z,1.00
2022-12-03T21:58:07.637Z,1.00
2022-12-03T22:00:12.295Z,1.00
2022-12-03T22:02:14.881Z,1.00
2022-12-03T22:04:17.351Z,1.00
2022-12-03T22:06:20.091Z,1.00
2022-12-03T22:10:27.053Z,1.10
2022-12-03T22:12:30.336Z,1.00
2022-12-03T22:14:32.856Z,1.00
2022-12-03T22:16:35.380Z,1.00
2022-12-03T22:18:38.467Z,1.00
2022-12-03T22:20:42.172Z,1.00
2022-12-03T22:22:44.655Z,1.00
2022-12-03T22:24:47.541Z,1.00
2022-12-03T22:26:51.495Z,1.00
2022-12-03T22:28:54.007Z,1.00
2022-12-03T22:30:56.933Z,1.00
2022-12-03T22:32:59.452Z,1.10
2022-12-03T22:35:02.016Z,1.00
2022-12-03T22:37:04.620Z,1.00
2022-12-03T22:39:07.076Z,1.00
2022-12-03T22:41:10.717Z,1.10
2022-12-03T22:43:13.193Z,1.00
2022-12-03T22:45:15.840Z,1.10
2022-12-03T22:47:18.392Z,1.10
2022-12-03T22:49:20.871Z,1.10
2022-12-03T22:51:24.374Z,1.10
2022-12-03T22:53:26.872Z,1.10
2022-12-03T22:55:29.359Z,1.10
2022-12-03T22:57:32.453Z,1.10
2022-12-03T22:59:35.093Z,1.00
2022-12-03T23:01:39.392Z,1.00
2022-12-03T23:03:41.970Z,1.00
2022-12-03T23:05:44.508Z,1.00
2022-12-03T23:07:47.017Z,1.00
2022-12-03T23:09:49.843Z,1.00
2022-12-03T23:11:53.920Z,1.00
2022-12-03T23:13:56.539Z,1.10
2022-12-03T23:15:59.343Z,1.00
2022-12-03T23:18:02.373Z,1.00
2022-12-03T23:20:05.859Z,1.10
2022-12-03T23:22:08.444Z,1.10
2022-12-03T23:24:11.160Z,1.10
2022-12-03T23:26:14.644Z,1.10
2022-12-03T23:28:17.144Z,1.00
2022-12-03T23:30:20.154Z,1.00
2022-12-03T23:32:22.767Z,1.00
2022-12-03T23:34:25.326Z,1.00
2022-12-03T23:36:28.555Z,1.00
2022-12-03T23:38:31.044Z,1.00
2022-12-03T23:40:33.944Z,1.00
2022-12-03T23:42:36.623Z,1.10
2022-12-03T23:44:39.094Z,1.10
2022-12-03T23:49:02.276Z,1.00
2022-12-03T23:51:05.582Z,1.20
2022-12-03T23:53:08.488Z,1.00
2022-12-03T23:55:11.071Z,1.00
2022-12-03T23:57:13.537Z,0.90
2022-12-03T23:59:15.994Z,1.00
